Time;durP1;ratioP1;P1;durP2;ratioP2;P2;SDS_P1;SDS_P2;PMS_P1;PMS_P2;Temp;Humidity;BMP_temperature;BMP_pressure;BME280_temperature;BME280_humidity;BME280_pressure;Samples;Min_cycle;Max_cycle;Signal;HPM_P1;HPM_P2
2023/12/12 00:01:49;;;;;;;20.63;6.00;;;3.40;99.90;;;;;;4825095;29;20129;-92
2023/12/12 00:04:15;;;;;;;14.40;6.40;;;3.80;99.90;;;;;;4824693;29;20046;-93
2023/12/12 00:06:52;;;;;;;15.73;5.87;;;3.40;99.90;;;;;;4825182;29;20091;-92
2023/12/12 00:09:20;;;;;;;13.93;5.40;;;3.70;99.90;;;;;;4824582;29;20058;-92
2023/12/12 00:11:46;;;;;;;15.57;5.60;;;3.50;99.90;;;;;;4825047;29;20050;-92
2023/12/12 00:14:24;;;;;;;15.83;5.97;;;3.90;99.90;;;;;;4825134;29;20120;-92
2023/12/12 00:16:52;;;;;;;15.43;5.60;;;3.60;99.90;;;;;;4838329;29;20042;-93
2023/12/12 00:20:17;;;;;;;16.73;6.03;;;3.70;99.90;;;;;;4850804;29;20536;-93
2023/12/12 00:22:45;;;;;;;15.20;6.27;;;3.50;99.90;;;;;;4851673;29;20518;-92
2023/12/12 00:25:29;;;;;;;20.93;6.43;;;3.30;99.90;;;;;;4850820;29;20045;-92
2023/12/12 00:27:55;;;;;;;17.95;5.95;;;3.50;99.90;;;;;;4855518;29;20053;-93
2023/12/12 00:31:10;;;;;;;14.53;5.60;;;5.40;99.90;;;;;;4855014;29;20510;-93
2023/12/12 00:33:54;;;;;;;18.37;6.20;;;3.40;99.90;;;;;;4835192;29;20133;-91
2023/12/12 00:36:22;;;;;;;;;;;3.40;99.90;;;;;;4843733;29;20088;-92
2023/12/12 00:38:48;;;;;;;18.50;6.40;;;4.90;99.90;;;;;;4842635;29;19949;-93
2023/12/12 00:41:16;;;;;;;22.27;6.37;;;3.00;99.90;;;;;;4841694;29;20042;-92
2023/12/12 00:43:51;;;;;;;18.30;6.43;;;3.50;99.90;;;;;;4873938;29;20057;-92
2023/12/12 00:46:29;;;;;;;16.93;6.07;;;3.40;99.90;;;;;;4872689;29;20056;-92
2023/12/12 00:49:17;;;;;;;18.57;6.33;;;2.80;99.90;;;;;;4837753;29;20240;-91
2023/12/12 00:51:46;;;;;;;20.40;7.20;;;2.70;99.90;;;;;;4858835;29;20037;-92
2023/12/12 00:54:30;;;;;;;18.57;6.93;;;3.40;99.90;;;;;;4862775;29;20090;-92
2023/12/12 00:56:56;;;;;;;;;;;3.10;99.90;;;;;;4865648;29;20050;-92
2023/12/12 00:59:24;;;;;;;19.60;6.70;;;4.60;99.90;;;;;;4843066;29;19973;-92
2023/12/12 01:01:50;;;;;;;15.97;6.60;;;3.30;99.90;;;;;;4838275;29;20038;-92
2023/12/12 01:04:24;;;;;;;16.90;6.73;;;4.70;99.90;;;;;;4824334;29;20050;-92
2023/12/12 01:06:50;;;;;;;19.07;6.33;;;4.20;99.90;;;;;;4838477;29;20490;-92
2023/12/12 01:09:18;;;;;;;17.13;6.87;;;3.20;99.90;;;;;;4845989;29;20061;-92
2023/12/12 01:11:44;;;;;;;17.97;7.03;;;3.60;99.90;;;;;;4842392;29;20146;-93
2023/12/12 01:14:20;;;;;;;17.03;6.63;;;3.10;99.90;;;;;;4842821;29;20515;-92
2023/12/12 01:17:07;;;;;;;19.20;6.87;;;2.90;99.90;;;;;;4842539;29;20082;-92
2023/12/12 01:19:51;;;;;;;15.33;6.50;;;3.30;99.90;;;;;;4824843;29;20051;-92
2023/12/12 01:22:53;;;;;;;15.80;6.77;;;4.00;99.90;;;;;;4823316;29;20050;-92
2023/12/12 01:25:34;;;;;;;17.27;7.00;;;3.20;99.90;;;;;;4823606;29;20408;-93
2023/12/12 01:28:22;;;;;;;19.17;7.30;;;2.80;99.90;;;;;;4822794;29;20157;-92
2023/12/12 01:30:48;;;;;;;19.97;6.60;;;4.10;99.90;;;;;;4795726;29;20097;-91
2023/12/12 01:33:13;;;;;;;16.90;7.20;;;3.20;99.90;;;;;;4857351;24;20080;-93
2023/12/12 01:35:39;;;;;;;20.60;7.73;;;2.50;99.90;;;;;;4864177;23;20042;-92
2023/12/12 01:38:05;;;;;;;17.30;7.10;;;3.10;99.90;;;;;;4842456;29;20053;-92
2023/12/12 01:40:31;;;;;;;22.13;7.17;;;2.80;99.90;;;;;;4844665;29;20099;-92
2023/12/12 01:43:08;;;;;;;20.47;7.90;;;3.00;99.90;;;;;;4843526;29;20050;-92
2023/12/12 01:45:49;;;;;;;20.50;7.87;;;2.70;99.90;;;;;;4844787;29;20068;-91
2023/12/12 01:48:15;;;;;;;18.70;7.50;;;3.10;99.90;;;;;;4840215;29;20052;-92
2023/12/12 01:51:04;;;;;;;21.20;8.10;;;3.30;99.90;;;;;;4841146;29;20046;-91
2023/12/12 01:56:39;;;;;;;17.40;8.20;;;2.60;99.90;;;;;;4855713;23;20053;-92
2023/12/12 01:59:26;;;;;;;20.53;8.23;;;3.20;99.90;;;;;;4807823;29;20166;-92
2023/12/12 02:01:57;;;;;;;19.53;9.20;;;2.80;99.90;;;;;;4808448;29;20133;-93
2023/12/12 02:04:28;;;;;;;22.47;8.83;;;2.60;99.90;;;;;;4861192;24;20080;-92
2023/12/12 02:07:13;;;;;;;26.03;9.23;;;4.30;99.90;;;;;;4825736;29;20054;-92
2023/12/12 02:09:39;;;;;;;18.80;8.53;;;4.50;99.90;;;;;;4825752;29;20050;-91
2023/12/12 02:12:09;;;;;;;25.50;9.13;;;2.50;99.90;;;;;;4841984;29;20077;-93
2023/12/12 02:14:37;;;;;;;23.10;9.53;;;3.30;99.90;;;;;;4844094;29;20058;-92
2023/12/12 02:17:08;;;;;;;21.70;9.03;;;1.80;99.90;;;;;;4840996;29;20054;-92
2023/12/12 02:19:40;;;;;;;24.77;9.60;;;3.60;99.90;;;;;;4809606;29;20053;-91
2023/12/12 02:22:26;;;;;;;23.63;9.30;;;2.40;99.90;;;;;;4824609;29;20511;-92
2023/12/12 02:24:52;;;;;;;23.70;9.70;;;2.90;99.90;;;;;;4808744;29;20050;-92
2023/12/12 02:27:42;;;;;;;22.63;8.90;;;2.40;99.90;;;;;;4810672;29;20065;-91
2023/12/12 02:30:09;;;;;;;22.47;8.90;;;2.40;99.90;;;;;;4796845;29;20110;-91
2023/12/12 02:33:37;;;;;;;26.53;9.60;;;2.30;99.90;;;;;;4826870;29;20069;-92
2023/12/12 02:36:09;;;;;;;17.87;8.37;;;2.30;99.90;;;;;;4798095;29;20091;-92
2023/12/12 02:38:35;;;;;;;21.00;8.40;;;3.20;99.90;;;;;;4812737;29;20511;-91
2023/12/12 02:41:04;;;;;;;23.63;9.37;;;3.40;99.90;;;;;;4810310;29;20133;-91
2023/12/12 02:43:29;;;;;;;33.70;10.07;;;3.00;99.90;;;;;;4835199;29;20063;-92
2023/12/12 02:45:55;;;;;;;22.37;9.10;;;2.30;99.90;;;;;;4825598;29;20042;-92
2023/12/12 02:48:21;;;;;;;26.30;8.90;;;3.40;99.90;;;;;;4826463;29;20137;-92
2023/12/12 02:50:46;;;;;;;24.57;9.50;;;2.30;99.90;;;;;;4826094;29;20080;-92
2023/12/12 02:53:12;;;;;;;22.57;8.50;;;1.70;99.90;;;;;;4828023;29;20079;-91
2023/12/12 02:55:38;;;;;;;24.57;9.57;;;1.50;99.90;;;;;;4825756;29;20050;-91
2023/12/12 02:58:03;;;;;;;23.83;9.10;;;1.40;99.90;;;;;;4826789;29;20073;-92
2023/12/12 03:00:29;;;;;;;24.23;9.13;;;1.70;99.90;;;;;;4845109;29;20542;-91
2023/12/12 03:03:09;;;;;;;21.73;8.90;;;2.10;99.90;;;;;;4825846;29;20058;-90
2023/12/12 03:05:35;;;;;;;28.00;10.33;;;2.40;99.90;;;;;;4810867;29;20054;-92
2023/12/12 03:08:01;;;;;;;25.97;9.27;;;1.40;99.90;;;;;;4809067;29;20049;-92
2023/12/12 03:10:26;;;;;;;30.30;9.83;;;2.40;99.90;;;;;;4810696;29;20068;-91
2023/12/12 03:12:52;;;;;;;21.20;9.03;;;2.40;99.90;;;;;;4810110;29;20095;-93
2023/12/12 03:15:23;;;;;;;26.40;9.37;;;1.90;99.90;;;;;;4809980;29;20107;-92
2023/12/12 03:17:49;;;;;;;26.97;9.87;;;1.20;99.90;;;;;;4810578;29;20122;-92
2023/12/12 03:20:14;;;;;;;21.97;8.70;;;1.80;99.90;;;;;;4809784;29;20484;-91
2023/12/12 03:22:40;;;;;;;21.03;8.87;;;1.40;99.90;;;;;;4810473;29;20043;-92
2023/12/12 03:25:13;;;;;;;19.47;9.03;;;1.10;99.90;;;;;;4810432;29;20160;-92
2023/12/12 03:27:38;;;;;;;25.17;8.73;;;1.40;99.90;;;;;;4809603;29;20082;-92
2023/12/12 03:30:05;;;;;;;22.77;8.90;;;1.20;99.90;;;;;;4809154;29;20089;-92
2023/12/12 03:32:31;;;;;;;27.20;9.63;;;1.20;99.90;;;;;;4809869;29;20054;-92
2023/12/12 03:34:57;;;;;;;28.27;9.70;;;0.70;99.90;;;;;;4809104;29;20441;-92
2023/12/12 03:37:33;;;;;;;24.93;8.90;;;2.20;99.90;;;;;;4810084;29;20062;-91
2023/12/12 03:39:58;;;;;;;25.33;9.30;;;1.00;99.90;;;;;;4810177;29;20046;-92
2023/12/12 03:42:24;;;;;;;21.73;8.70;;;2.00;99.90;;;;;;4809453;29;20057;-91
2023/12/12 03:44:50;;;;;;;23.83;9.30;;;1.50;99.90;;;;;;4809925;29;20137;-92
2023/12/12 03:47:17;;;;;;;20.70;8.70;;;2.60;99.90;;;;;;4810084;29;20392;-92
2023/12/12 03:49:42;;;;;;;25.03;9.50;;;1.80;99.90;;;;;;4815548;29;20046;-92
2023/12/12 03:52:08;;;;;;;23.37;8.90;;;0.90;99.90;;;;;;4832441;29;20069;-91
2023/12/12 03:54:39;;;;;;;24.07;9.07;;;1.90;99.90;;;;;;4827214;29;20133;-92
2023/12/12 03:57:05;;;;;;;24.13;8.77;;;1.00;99.90;;;;;;4818760;29;20051;-92
2023/12/12 03:59:30;;;;;;;27.17;10.60;;;0.70;99.90;;;;;;4810066;29;20091;-91
2023/12/12 04:01:57;;;;;;;31.67;10.00;;;2.00;99.90;;;;;;4809642;29;20478;-92
2023/12/12 04:04:22;;;;;;;30.30;9.60;;;1.40;99.90;;;;;;4820183;29;20058;-90
2023/12/12 04:06:48;;;;;;;22.43;8.33;;;2.10;99.90;;;;;;4837707;29;20078;-92
2023/12/12 04:09:16;;;;;;;22.83;8.43;;;0.00;99.90;;;;;;4829729;29;20046;-91
2023/12/12 04:11:42;;;;;;;27.37;8.77;;;0.90;99.90;;;;;;4824588;29;20050;-91
2023/12/12 04:14:08;;;;;;;28.50;9.47;;;2.40;99.90;;;;;;4841545;29;20050;-91
2023/12/12 04:16:34;;;;;;;28.13;9.17;;;1.90;99.90;;;;;;4824476;29;20249;-91
2023/12/12 04:18:59;;;;;;;28.60;9.03;;;1.00;99.90;;;;;;4824268;29;20066;-92
2023/12/12 04:21:25;;;;;;;31.87;11.23;;;1.80;99.90;;;;;;4825489;29;20046;-91
2023/12/12 04:23:56;;;;;;;29.87;10.83;;;1.20;99.90;;;;;;4824051;29;20398;-91
2023/12/12 04:26:22;;;;;;;32.33;10.67;;;1.30;99.90;;;;;;4840092;29;20053;-92
2023/12/12 04:28:48;;;;;;;36.27;11.83;;;1.10;99.90;;;;;;4824438;29;20046;-92
2023/12/12 04:31:15;;;;;;;35.80;11.53;;;0.90;99.90;;;;;;4824152;29;20415;-91
2023/12/12 04:33:41;;;;;;;37.97;13.03;;;1.30;99.90;;;;;;4824618;29;20074;-91
2023/12/12 04:36:14;;;;;;;34.73;12.17;;;2.00;99.90;;;;;;4824496;29;20154;-91
2023/12/12 04:38:40;;;;;;;40.80;14.47;;;1.30;99.90;;;;;;4824099;29;20531;-90
2023/12/12 04:41:07;;;;;;;41.03;13.67;;;1.60;99.90;;;;;;4824419;29;20053;-91
2023/12/12 04:43:32;;;;;;;35.30;13.07;;;2.30;99.90;;;;;;4825840;29;20493;-92
2023/12/12 04:46:09;;;;;;;53.30;14.43;;;2.80;99.90;;;;;;4825772;29;20065;-91
2023/12/12 04:48:35;;;;;;;45.13;14.93;;;1.10;99.90;;;;;;4824336;29;20046;-90
2023/12/12 04:51:04;;;;;;;41.03;14.13;;;2.30;99.90;;;;;;4824037;29;20129;-91
2023/12/12 04:53:29;;;;;;;50.50;15.17;;;1.30;99.90;;;;;;4823318;29;20054;-91
2023/12/12 04:56:02;;;;;;;51.50;15.00;;;1.20;99.90;;;;;;4808633;29;20042;-91
2023/12/12 04:58:28;;;;;;;80.20;17.40;;;1.70;99.90;;;;;;4823931;29;20058;-91
2023/12/12 05:00:54;;;;;;;41.87;10.40;;;1.30;99.90;;;;;;4822927;29;20664;-92
2023/12/12 05:06:31;;;;;;;112.83;17.33;;;2.20;99.90;;;;;;4803590;29;20059;-91
2023/12/12 05:09:05;;;;;;;90.07;15.23;;;1.70;99.90;;;;;;4812408;29;20133;-92
2023/12/12 05:11:31;;;;;;;73.87;14.90;;;2.80;99.90;;;;;;4808305;29;20054;-92
2023/12/12 05:14:06;;;;;;;299.43;24.87;;;1.90;99.90;;;;;;4837663;29;20047;-91
2023/12/12 05:16:47;;;;;;;277.70;26.73;;;1.70;99.90;;;;;;4823687;29;20046;-90
2023/12/12 05:19:13;;;;;;;227.63;21.53;;;1.70;99.90;;;;;;4809178;29;20046;-91
2023/12/12 05:21:57;;;;;;;212.80;22.20;;;1.90;99.90;;;;;;4824532;29;20195;-92
2023/12/12 05:24:23;;;;;;;87.47;14.60;;;2.00;99.90;;;;;;4831535;29;20051;-92
2023/12/12 05:27:23;;;;;;;74.63;14.90;;;1.60;99.90;;;;;;4830104;29;20049;-90
2023/12/12 05:29:56;;;;;;;250.83;22.13;;;1.10;99.90;;;;;;4808780;29;20055;-91
2023/12/12 05:32:22;;;;;;;322.88;29.75;;;1.70;99.90;;;;;;4816420;29;20536;-92
2023/12/12 05:37:40;;;;;;;73.30;15.20;;;3.30;99.90;;;;;;4822078;29;20079;-92
2023/12/12 05:40:06;;;;;;;143.63;19.67;;;1.90;99.90;;;;;;4812193;29;20110;-92
2023/12/12 05:42:32;;;;;;;99.73;15.90;;;1.80;99.90;;;;;;4823318;29;20061;-92
2023/12/12 05:44:57;;;;;;;197.77;19.40;;;2.90;99.90;;;;;;4808543;29;20054;-93
2023/12/12 05:47:29;;;;;;;67.43;15.77;;;1.90;99.90;;;;;;4824234;29;20061;-92
2023/12/12 05:49:54;;;;;;;100.77;15.87;;;1.70;99.90;;;;;;4823024;29;20384;-92
2023/12/12 05:52:20;;;;;;;54.70;14.00;;;3.90;99.90;;;;;;4824096;29;20046;-92
2023/12/12 05:54:46;;;;;;;58.90;14.97;;;2.10;99.90;;;;;;4808191;29;20046;-92
2023/12/12 05:57:14;;;;;;;74.63;15.77;;;2.40;99.90;;;;;;4808114;29;20097;-92
2023/12/12 05:59:40;;;;;;;49.00;14.83;;;3.60;99.90;;;;;;4808537;29;20103;-93
2023/12/12 06:02:08;;;;;;;70.27;15.57;;;2.30;99.90;;;;;;4822972;29;20062;-93
2023/12/12 06:04:35;;;;;;;66.30;15.70;;;2.40;99.90;;;;;;4822392;29;20055;-93
2023/12/12 06:07:02;;;;;;;68.37;16.67;;;2.70;99.90;;;;;;4837976;29;20093;-92
2023/12/12 06:12:54;;;;;;;86.27;16.23;;;2.80;99.90;;;;;;4893821;24;20058;-94
2023/12/12 06:23:02;;;;;;;113.77;20.90;;;3.20;99.90;;;;;;4793336;29;20125;-89
2023/12/12 06:26:03;;;;;;;105.50;19.53;;;2.90;99.90;;;;;;4870249;23;20064;-96
2023/12/12 06:29:02;;;;;;;99.57;19.70;;;3.70;99.90;;;;;;4881603;23;20410;-94
2023/12/12 06:31:53;;;;;;;68.20;17.53;;;4.80;99.90;;;;;;4845111;29;20050;-92
2023/12/12 06:34:48;;;;;;;;;;;;;;;;;;;;;
2023/12/12 06:38:23;;;;;;;;;;;;;;;;;;;;;
2023/12/12 06:41:03;;;;;;;;;;;;;;;;;;;;;
2023/12/12 06:47:47;;;;;;;110.80;21.57;;;3.80;99.90;;;;;;4860460;29;20050;-92
2023/12/12 06:51:13;;;;;;;115.93;21.27;;;4.40;99.90;;;;;;4788992;30;20051;-91
2023/12/12 06:53:44;;;;;;;110.43;20.47;;;2.90;99.90;;;;;;4865850;29;20046;-90
2023/12/12 06:56:12;;;;;;;96.80;21.43;;;3.70;99.90;;;;;;4848775;29;20056;-93
2023/12/12 06:59:56;;;;;;;98.40;21.07;;;4.90;99.90;;;;;;4819333;29;20057;-91
2023/12/12 07:02:36;;;;;;;108.43;22.47;;;3.80;99.90;;;;;;4783411;30;20066;-89
2023/12/12 07:05:04;;;;;;;102.87;22.30;;;3.20;99.90;;;;;;4845393;29;20085;-86
2023/12/12 07:07:30;;;;;;;102.70;22.17;;;4.00;99.90;;;;;;4845737;29;20057;-86
2023/12/12 07:09:56;;;;;;;116.93;23.83;;;3.70;99.90;;;;;;4846299;29;20064;-85
2023/12/12 07:12:23;;;;;;;109.97;22.97;;;3.80;99.90;;;;;;4839473;29;20490;-87
2023/12/12 07:14:49;;;;;;;116.67;23.90;;;5.60;99.90;;;;;;4836556;29;20053;-88
2023/12/12 07:23:41;;;;;;;105.73;21.43;;;5.30;99.90;;;;;;4772392;30;20612;-89
2023/12/12 07:26:44;;;;;;;87.20;21.77;;;4.30;99.90;;;;;;4773127;30;20102;-89
2023/12/12 07:29:19;;;;;;;109.37;23.13;;;5.30;99.90;;;;;;4694793;30;20058;-90
2023/12/12 07:31:46;;;;;;;120.00;23.40;;;4.30;99.90;;;;;;5027918;24;20121;-94
2023/12/12 07:34:18;;;;;;;105.37;22.73;;;4.60;99.90;;;;;;4828052;29;20102;-93
2023/12/12 07:40:38;;;;;;;94.87;20.80;;;4.10;99.90;;;;;;4816832;29;20137;-91
2023/12/12 07:43:12;;;;;;;172.10;32.50;;;5.10;99.90;;;;;;4827868;29;20441;-91
2023/12/12 07:45:53;;;;;;;157.00;31.87;;;4.20;99.90;;;;;;4843922;29;20046;-90
2023/12/12 07:52:23;;;;;;;123.20;31.37;;;4.00;99.90;;;;;;4824484;29;20130;-91
2023/12/12 08:04:41;;;;;;;128.10;31.70;;;3.70;99.90;;;;;;4822306;29;20042;-90
2023/12/12 08:13:31;;;;;;;147.20;35.90;;;3.30;99.90;;;;;;4906315;24;20175;-92
2023/12/12 08:16:03;;;;;;;172.27;36.00;;;3.50;99.90;;;;;;4835076;29;20053;-93
2023/12/12 08:18:37;;;;;;;188.70;40.33;;;3.90;99.90;;;;;;4837736;29;20060;-92
2023/12/12 08:21:45;;;;;;;173.80;39.13;;;4.70;99.90;;;;;;4820914;29;20574;-92
2023/12/12 08:24:13;;;;;;;146.47;34.73;;;3.90;99.90;;;;;;4843452;29;20379;-93
2023/12/12 08:33:57;;;;;;;183.68;35.97;;;3.80;99.90;;;;;;4811075;29;20049;-95
2023/12/12 08:45:23;;;;;;;197.30;40.75;;;3.40;99.90;;;;;;4824892;29;20066;-89
2023/12/12 08:47:48;;;;;;;133.67;36.27;;;3.80;99.90;;;;;;4827871;29;20050;-90
2023/12/12 08:50:14;;;;;;;141.70;35.70;;;3.60;99.90;;;;;;4825367;29;20046;-90
2023/12/12 08:52:40;;;;;;;171.03;38.37;;;3.80;99.90;;;;;;4822543;29;20399;-91
2023/12/12 08:55:08;;;;;;;145.30;37.17;;;3.40;99.90;;;;;;4810769;29;20455;-91
2023/12/12 08:57:45;;;;;;;183.73;37.37;;;4.70;99.90;;;;;;4808252;29;20058;-91
2023/12/12 09:00:12;;;;;;;177.30;37.50;;;3.10;99.90;;;;;;4807071;29;20117;-91
2023/12/12 09:02:39;;;;;;;164.47;35.17;;;3.60;99.90;;;;;;4807370;29;20491;-91
2023/12/12 09:05:17;;;;;;;136.67;37.43;;;4.70;99.90;;;;;;4806665;29;20050;-90
2023/12/12 09:07:43;;;;;;;191.83;40.50;;;3.60;99.90;;;;;;4807819;29;20253;-90
2023/12/12 09:10:27;;;;;;;169.37;39.80;;;3.70;99.90;;;;;;4807049;29;20051;-90
2023/12/12 09:16:33;;;;;;;309.93;49.90;;;3.60;99.90;;;;;;4824393;29;20520;-91
2023/12/12 09:18:59;;;;;;;457.70;60.80;;;3.90;99.90;;;;;;4806798;29;20047;-90
2023/12/12 09:21:25;;;;;;;548.77;67.93;;;3.50;99.90;;;;;;4807903;29;20144;-91
2023/12/12 09:23:51;;;;;;;526.73;67.47;;;3.70;99.90;;;;;;4807574;29;20482;-90
2023/12/12 09:26:18;;;;;;;656.83;74.43;;;4.20;99.90;;;;;;4821661;29;20242;-91
2023/12/12 09:28:44;;;;;;;686.43;76.73;;;5.00;99.90;;;;;;4815343;29;20054;-90
2023/12/12 09:31:13;;;;;;;715.33;82.37;;;4.20;99.90;;;;;;4826312;29;20045;-90
2023/12/12 09:33:39;;;;;;;608.00;73.03;;;4.10;99.90;;;;;;4825350;29;20398;-90
2023/12/12 09:36:08;;;;;;;677.77;73.23;;;4.50;99.90;;;;;;4825748;29;20046;-90
2023/12/12 09:38:34;;;;;;;633.90;77.30;;;4.60;99.90;;;;;;4827544;29;20091;-90
2023/12/12 09:41:02;;;;;;;456.00;58.10;;;4.80;99.90;;;;;;4824663;29;20102;-90
2023/12/12 09:43:29;;;;;;;548.57;65.37;;;4.70;99.90;;;;;;4826591;29;20058;-90
2023/12/12 09:46:11;;;;;;;448.30;59.20;;;4.50;99.90;;;;;;4830713;29;20046;-90
2023/12/12 09:48:38;;;;;;;386.93;45.63;;;4.20;99.90;;;;;;4808310;29;20046;-90
2023/12/12 09:51:06;;;;;;;286.83;39.30;;;5.30;99.90;;;;;;4809140;29;20057;-91
2023/12/12 09:57:05;;;;;;;313.57;38.10;;;5.30;99.90;;;;;;4831471;29;20069;-88
2023/12/12 09:59:34;;;;;;;409.37;49.63;;;4.30;99.90;;;;;;4823545;29;20050;-88
2023/12/12 10:02:03;;;;;;;475.83;55.63;;;4.60;99.90;;;;;;4821687;29;20508;-88
2023/12/12 10:04:34;;;;;;;436.10;51.23;;;5.10;99.90;;;;;;4822882;29;20057;-88
2023/12/12 10:07:05;;;;;;;440.57;49.93;;;4.30;99.90;;;;;;4822395;29;20057;-88
2023/12/12 10:10:04;;;;;;;409.80;47.13;;;4.60;99.90;;;;;;4822034;29;20133;-87
2023/12/12 10:12:43;;;;;;;432.07;60.57;;;4.70;99.90;;;;;;4822548;29;20058;-87
2023/12/12 10:15:23;;;;;;;391.73;54.47;;;4.80;99.90;;;;;;4821639;29;20548;-87
2023/12/12 10:17:58;;;;;;;365.90;42.17;;;5.40;99.90;;;;;;4822630;29;20059;-87
2023/12/12 10:20:26;;;;;;;230.93;37.57;;;4.90;99.90;;;;;;4823337;29;20050;-86
2023/12/12 10:26:47;;;;;;;322.73;47.63;;;6.00;99.90;;;;;;4804586;29;20054;-87
2023/12/12 10:32:14;;;;;;;291.53;34.47;;;4.20;99.90;;;;;;4812317;29;20146;-91
2023/12/12 10:38:24;;;;;;;302.87;37.37;;;5.50;99.90;;;;;;4829114;29;20090;-90
2023/12/12 10:40:50;;;;;;;294.87;37.80;;;4.80;99.90;;;;;;4828075;29;20131;-91
2023/12/12 10:43:20;;;;;;;235.97;34.23;;;4.90;99.90;;;;;;4825420;29;20108;-90
2023/12/12 10:45:48;;;;;;;318.87;38.57;;;6.80;99.90;;;;;;4825731;29;20053;-89
2023/12/12 10:48:40;;;;;;;262.27;35.87;;;6.70;99.90;;;;;;4819443;29;20171;-90
2023/12/12 10:51:05;;;;;;;208.07;32.50;;;3.60;99.90;;;;;;4818233;29;20179;-90
2023/12/12 10:53:32;;;;;;;265.07;35.07;;;5.30;99.90;;;;;;4834593;29;20058;-88
2023/12/12 10:56:13;;;;;;;202.17;31.77;;;4.90;99.90;;;;;;4829221;29;20057;-88
2023/12/12 10:58:44;;;;;;;179.17;30.83;;;4.80;99.90;;;;;;4833909;29;20078;-88
2023/12/12 11:01:12;;;;;;;196.80;35.70;;;6.80;99.90;;;;;;4844608;29;20046;-88
2023/12/12 11:03:42;;;;;;;187.37;35.07;;;5.40;99.90;;;;;;4824364;29;20078;-88
2023/12/12 11:06:11;;;;;;;190.73;32.07;;;5.60;99.90;;;;;;4834536;29;20403;-89
2023/12/12 11:08:46;;;;;;;148.30;26.30;;;5.50;99.90;;;;;;4822296;29;20567;-88
2023/12/12 11:11:14;;;;;;;88.37;22.17;;;7.50;99.90;;;;;;4832870;29;20046;-88
2023/12/12 11:13:42;;;;;;;93.67;20.83;;;6.20;99.90;;;;;;4832354;29;20402;-89
2023/12/12 11:16:09;;;;;;;109.27;21.63;;;7.20;99.90;;;;;;4824508;29;20038;-89
2023/12/12 11:19:06;;;;;;;99.53;21.53;;;5.70;99.90;;;;;;4837612;29;20518;-91
2023/12/12 11:21:58;;;;;;;108.80;21.70;;;7.10;99.90;;;;;;4842269;29;20132;-89
2023/12/12 11:25:10;;;;;;;123.30;23.73;;;5.00;99.90;;;;;;4839196;29;20053;-88
2023/12/12 11:31:01;;;;;;;201.13;32.13;;;5.20;99.90;;;;;;4876959;24;20137;-89
2023/12/12 11:33:28;;;;;;;156.43;30.17;;;7.40;99.90;;;;;;4845522;29;20486;-88
2023/12/12 11:35:55;;;;;;;136.90;25.83;;;7.60;99.90;;;;;;4844617;29;20045;-88
2023/12/12 11:38:41;;;;;;;121.43;28.07;;;6.20;99.90;;;;;;4858624;24;20072;-92
2023/12/12 11:41:58;;;;;;;172.53;29.30;;;5.80;99.90;;;;;;4849556;29;20107;-94
2023/12/12 12:00:33;;;;;;;176.70;33.27;;;6.10;99.90;;;;;;4683753;23;20517;-91
2023/12/12 12:04:12;;;;;;;200.27;33.67;;;7.20;99.90;;;;;;4861246;29;20096;-89
2023/12/12 12:06:38;;;;;;;268.73;36.50;;;6.20;99.90;;;;;;4805198;29;20059;-87
2023/12/12 12:09:17;;;;;;;234.83;37.07;;;6.00;99.90;;;;;;4788578;29;20155;-88
2023/12/12 12:12:17;;;;;;;;;;;;;;;;;;;;;
2023/12/12 12:15:29;;;;;;;184.33;35.37;;;6.30;99.90;;;;;;4828744;29;20406;-88
2023/12/12 12:18:44;;;;;;;247.17;38.43;;;6.30;99.90;;;;;;4809684;29;20132;-88
2023/12/12 12:21:16;;;;;;;215.10;34.83;;;6.30;99.90;;;;;;4826543;29;20089;-88
2023/12/12 12:23:52;;;;;;;265.87;45.10;;;5.70;99.90;;;;;;4825729;29;20053;-87
2023/12/12 12:26:19;;;;;;;186.53;38.37;;;6.30;99.90;;;;;;4827022;29;20114;-87
2023/12/12 12:28:45;;;;;;;166.53;37.23;;;6.40;99.90;;;;;;4827066;29;20133;-89
2023/12/12 12:31:10;;;;;;;172.57;33.77;;;6.80;99.90;;;;;;4825897;29;20136;-86
2023/12/12 12:34:21;;;;;;;134.30;31.27;;;7.00;99.90;;;;;;4826943;29;20050;-89
2023/12/12 12:38:15;;;;;;;142.00;30.63;;;6.60;99.90;;;;;;4788780;29;20050;-90
2023/12/12 12:40:56;;;;;;;;;;;;;;;;;;;;;
2023/12/12 12:45:05;;;;;;;117.50;30.50;;;5.80;99.90;;;;;;4823464;29;20140;-88
2023/12/12 12:48:22;;;;;;;106.10;24.40;;;7.90;99.90;;;;;;4841238;29;20063;-88
2023/12/12 13:04:36;;;;;;;67.43;20.50;;;6.70;99.90;;;;;;4824335;29;20061;-88
2023/12/12 13:07:47;;;;;;;68.03;21.03;;;6.60;99.90;;;;;;4788315;29;20050;-88
2023/12/12 13:10:31;;;;;;;74.60;19.97;;;7.30;99.90;;;;;;4785784;29;20055;-87
2023/12/12 13:13:21;;;;;;;;;;;;;;;;;;;;;
2023/12/12 13:16:19;;;;;;;78.43;20.83;;;8.40;99.90;;;;;;4764409;29;20595;-88
2023/12/12 13:19:19;;;;;;;;;;;;;;;;;;;;;
2023/12/12 13:22:39;;;;;;;70.83;20.03;;;8.50;99.90;;;;;;4783850;29;20424;-88
2023/12/12 13:28:17;;;;;;;57.80;19.67;;;6.80;99.90;;;;;;4756247;30;20508;-88
2023/12/12 13:30:46;;;;;;;64.93;19.83;;;6.50;99.90;;;;;;4741055;30;20056;-91
2023/12/12 13:33:14;;;;;;;63.53;19.97;;;6.60;99.90;;;;;;4774317;29;20058;-88
2023/12/12 13:35:58;;;;;;;54.37;19.03;;;7.60;99.90;;;;;;4789453;29;20069;-86
2023/12/12 13:38:23;;;;;;;52.20;18.97;;;7.70;99.90;;;;;;4805708;29;20134;-88
2023/12/12 13:40:49;;;;;;;54.57;19.43;;;7.80;99.90;;;;;;4805322;29;20499;-88
2023/12/12 13:43:15;;;;;;;51.97;16.87;;;6.90;99.90;;;;;;4807707;29;20054;-88
2023/12/12 13:45:40;;;;;;;55.13;18.27;;;8.00;99.90;;;;;;4807805;29;20175;-88
2023/12/12 13:48:09;;;;;;;64.07;20.63;;;7.00;99.90;;;;;;4806834;29;20395;-88
2023/12/12 13:50:53;;;;;;;60.30;18.47;;;7.00;99.90;;;;;;4807549;29;20056;-88
2023/12/12 13:53:19;;;;;;;60.50;19.27;;;6.50;99.90;;;;;;4806966;29;20054;-88
2023/12/12 13:55:45;;;;;;;63.93;19.10;;;7.50;99.90;;;;;;4808571;29;20051;-88
2023/12/12 13:58:13;;;;;;;69.13;20.97;;;8.20;99.90;;;;;;4807014;29;20058;-91
2023/12/12 14:00:38;;;;;;;73.93;19.33;;;7.80;99.90;;;;;;4822710;29;20041;-88
2023/12/12 14:03:04;;;;;;;70.43;20.40;;;7.10;99.90;;;;;;4824353;29;20512;-87
2023/12/12 14:05:42;;;;;;;58.93;19.43;;;7.90;99.90;;;;;;4824986;29;20056;-92
2023/12/12 14:08:08;;;;;;;66.80;19.40;;;7.60;99.90;;;;;;4825456;29;20046;-87
2023/12/12 14:10:35;;;;;;;91.13;25.07;;;8.20;99.90;;;;;;4824504;29;20050;-88
2023/12/12 14:13:01;;;;;;;75.67;22.63;;;7.90;99.90;;;;;;4830075;29;20395;-85
2023/12/12 14:15:39;;;;;;;83.03;22.17;;;7.00;99.90;;;;;;4833006;24;20046;-90
2023/12/12 14:18:21;;;;;;;81.33;24.30;;;7.10;99.90;;;;;;4838024;29;20072;-87
2023/12/12 14:20:47;;;;;;;79.47;22.77;;;6.80;99.90;;;;;;4825686;29;20057;-85
2023/12/12 14:23:13;;;;;;;91.07;23.57;;;7.10;99.90;;;;;;4824392;29;20057;-86
2023/12/12 14:25:39;;;;;;;85.50;23.53;;;7.10;99.90;;;;;;4824233;29;20046;-85
2023/12/12 14:28:11;;;;;;;81.00;23.97;;;8.80;99.90;;;;;;4822109;29;20487;-84
2023/12/12 14:30:38;;;;;;;86.80;23.23;;;7.30;99.90;;;;;;4824176;29;20046;-82
2023/12/12 14:33:04;;;;;;;81.03;22.77;;;7.10;99.90;;;;;;4821706;29;20062;-82
2023/12/12 14:35:29;;;;;;;75.70;22.60;;;7.10;99.90;;;;;;4824242;29;20133;-83
2023/12/12 14:37:55;;;;;;;75.60;23.13;;;7.10;99.90;;;;;;4821759;29;20054;-83
2023/12/12 14:40:20;;;;;;;78.67;22.67;;;7.10;99.90;;;;;;4806788;29;20137;-83
2023/12/12 14:42:48;;;;;;;78.37;25.30;;;7.10;99.90;;;;;;4806590;29;20176;-81
2023/12/12 14:45:14;;;;;;;73.67;23.20;;;7.10;99.90;;;;;;4808736;29;20041;-85
2023/12/12 14:47:40;;;;;;;68.40;22.93;;;7.30;99.90;;;;;;4824224;29;20102;-85
2023/12/12 14:50:07;;;;;;;78.83;21.47;;;7.10;99.90;;;;;;4839974;29;20037;-84
2023/12/12 14:52:33;;;;;;;66.33;21.30;;;7.10;99.90;;;;;;4824864;29;20141;-85
2023/12/12 14:55:06;;;;;;;70.07;20.93;;;7.00;99.90;;;;;;4825092;29;20465;-86
2023/12/12 14:57:31;;;;;;;71.53;20.10;;;7.10;99.90;;;;;;4824101;29;20087;-84
2023/12/12 14:59:57;;;;;;;64.67;19.77;;;7.00;99.90;;;;;;4824676;29;20058;-85
2023/12/12 15:02:23;;;;;;;67.33;20.77;;;7.10;99.90;;;;;;4824759;29;20058;-85
2023/12/12 15:04:48;;;;;;;66.83;18.83;;;7.00;99.90;;;;;;4820029;29;20407;-84
2023/12/12 15:07:14;;;;;;;56.23;19.57;;;7.10;99.90;;;;;;4824236;29;20383;-84
2023/12/12 15:09:40;;;;;;;65.93;19.23;;;7.10;99.90;;;;;;4826333;29;20057;-85
2023/12/12 15:12:06;;;;;;;64.18;18.85;;;7.10;99.90;;;;;;4827137;29;20085;-84
2023/12/12 15:14:31;;;;;;;54.33;18.27;;;7.00;99.90;;;;;;4829739;29;20073;-84
2023/12/12 15:16:57;;;;;;;63.20;18.47;;;7.00;99.90;;;;;;4839832;29;20080;-84
2023/12/12 15:19:22;;;;;;;59.10;18.00;;;7.00;99.90;;;;;;4832057;29;20563;-84
2023/12/12 15:21:51;;;;;;;48.72;16.27;;;7.00;99.90;;;;;;4846013;29;20194;-85
2023/12/12 15:24:17;;;;;;;65.00;18.53;;;7.10;99.90;;;;;;4846212;29;20064;-85
2023/12/12 15:26:44;;;;;;;48.73;17.67;;;7.00;99.90;;;;;;4861693;29;20049;-85